createdAt,value
2022-12-31T00:00:11.549Z,3.78
2022-12-31T00:02:40.037Z,16.92
2022-12-31T00:05:14.843Z,23.30
2022-12-31T00:10:08.050Z,12.65
2022-12-31T00:12:34.970Z,22.52
2022-12-31T00:15:03.613Z,10.75
2022-12-31T00:17:30.509Z,35.22
2022-12-31T00:19:57.505Z,19.27
2022-12-31T00:22:24.605Z,52.65
2022-12-31T00:24:51.622Z,14.10
2022-12-31T00:27:18.566Z,38.72
2022-12-31T00:29:45.518Z,34.20
2022-12-31T00:32:12.464Z,25.50
2022-12-31T00:34:39.461Z,29.05
2022-12-31T00:37:06.630Z,5.90
2022-12-31T00:39:33.580Z,36.65
2022-12-31T00:42:00.509Z,15.98
2022-12-31T00:44:27.420Z,25.05
2022-12-31T00:46:54.330Z,28.50
2022-12-31T00:49:21.300Z,42.35
2022-12-31T00:51:48.362Z,27.95
2022-12-31T00:54:15.446Z,8.38
2022-12-31T00:56:42.414Z,44.60
2022-12-31T00:59:09.500Z,71.18
2022-12-31T01:01:39.474Z,16.95
2022-12-31T01:04:13.157Z,36.53
2022-12-31T01:06:41.544Z,40.72
2022-12-31T01:09:09.207Z,21.88
2022-12-31T01:11:36.439Z,34.08
2022-12-31T01:14:13.219Z,21.48
2022-12-31T01:16:51.755Z,31.55
2022-12-31T01:19:22.058Z,19.50
2022-12-31T01:21:50.413Z,13.27
2022-12-31T01:24:18.242Z,18.85
2022-12-31T01:26:45.656Z,9.60
2022-12-31T01:29:13.433Z,12.13
2022-12-31T01:31:41.039Z,26.45
2022-12-31T01:34:08.958Z,14.60
2022-12-31T01:36:36.802Z,37.53
2022-12-31T01:39:05.773Z,47.00
2022-12-31T01:41:36.771Z,35.33
2022-12-31T01:44:12.784Z,48.58
2022-12-31T01:46:52.094Z,20.75
2022-12-31T01:49:18.963Z,14.35
2022-12-31T01:51:58.442Z,29.05
2022-12-31T01:54:27.405Z,22.48
2022-12-31T01:56:56.408Z,5.60
2022-12-31T01:59:27.256Z,6.93
2022-12-31T02:01:55.192Z,12.35
2022-12-31T02:04:28.501Z,7.15
2022-12-31T02:07:00.153Z,5.95
2022-12-31T02:09:27.415Z,4.53
2022-12-31T02:11:54.311Z,20.92
2022-12-31T02:14:27.099Z,30.10
2022-12-31T02:17:06.183Z,15.30
2022-12-31T02:19:54.413Z,9.10
2022-12-31T02:22:39.816Z,69.18
2022-12-31T02:25:22.934Z,72.85
2022-12-31T02:28:11.734Z,31.30
2022-12-31T02:30:40.649Z,41.10
2022-12-31T02:33:32.938Z,33.83
2022-12-31T02:36:06.240Z,12.55
2022-12-31T02:38:37.312Z,43.55
2022-12-31T02:41:04.412Z,12.25
2022-12-31T02:43:31.328Z,12.23
2022-12-31T02:46:16.336Z,9.75
2022-12-31T02:48:59.957Z,18.20
2022-12-31T02:51:39.132Z,30.55
2022-12-31T02:54:23.399Z,34.38
2022-12-31T02:57:05.639Z,47.70
2022-12-31T02:59:59.538Z,38.08
2022-12-31T03:02:29.563Z,17.75
2022-12-31T03:04:57.721Z,24.00
2022-12-31T03:07:27.923Z,42.65
2022-12-31T03:09:58.188Z,31.65
2022-12-31T03:12:47.219Z,19.85
2022-12-31T03:15:26.005Z,7.00
2022-12-31T03:18:04.225Z,18.15
2022-12-31T03:20:53.406Z,17.77
2022-12-31T03:23:42.571Z,7.40
2022-12-31T03:26:11.749Z,12.73
2022-12-31T03:28:41.102Z,29.58
2022-12-31T03:31:09.189Z,18.42
2022-12-31T03:33:40.302Z,8.18
2022-12-31T03:36:13.394Z,14.48
2022-12-31T03:38:40.467Z,33.97
2022-12-31T03:41:10.731Z,10.57
2022-12-31T03:43:37.737Z,14.32
2022-12-31T03:46:04.867Z,12.20
2022-12-31T03:48:31.816Z,16.90
2022-12-31T03:50:58.744Z,26.67
2022-12-31T03:53:26.244Z,23.23
2022-12-31T03:55:53.862Z,11.48
2022-12-31T03:58:22.046Z,45.00
2022-12-31T04:00:49.831Z,13.10
2022-12-31T04:03:17.225Z,27.08
2022-12-31T04:05:44.149Z,6.20
2022-12-31T04:08:11.122Z,11.52
2022-12-31T04:10:38.144Z,6.70
2022-12-31T04:13:05.099Z,6.32
2022-12-31T04:15:32.371Z,44.67
2022-12-31T04:17:59.364Z,22.05
2022-12-31T04:20:26.327Z,65.10
2022-12-31T04:22:53.348Z,45.95
2022-12-31T04:25:20.294Z,45.97
2022-12-31T04:27:47.832Z,12.77
2022-12-31T04:30:15.200Z,22.95
2022-12-31T04:32:42.555Z,15.77
2022-12-31T04:35:10.826Z,29.70
2022-12-31T04:37:37.828Z,10.57
2022-12-31T04:40:06.822Z,6.95
2022-12-31T04:42:35.217Z,13.82
2022-12-31T04:45:02.355Z,18.90
2022-12-31T04:47:29.719Z,5.95
2022-12-31T04:49:56.675Z,5.47
2022-12-31T04:52:23.667Z,61.20
2022-12-31T04:54:50.660Z,29.05
2022-12-31T04:57:17.578Z,25.70
2022-12-31T04:59:44.489Z,33.13
2022-12-31T05:02:11.664Z,10.90
2022-12-31T05:04:38.815Z,14.13
2022-12-31T05:07:05.976Z,20.05
2022-12-31T05:09:32.907Z,35.95
2022-12-31T05:12:07.280Z,46.50
2022-12-31T05:14:34.219Z,49.95
2022-12-31T05:17:05.073Z,24.27
2022-12-31T05:19:31.989Z,36.22
2022-12-31T05:22:17.676Z,108.00
2022-12-31T05:24:44.558Z,14.85
2022-12-31T05:27:11.701Z,75.07
2022-12-31T05:29:38.650Z,152.18
2022-12-31T05:32:05.642Z,84.30
2022-12-31T05:34:32.626Z,56.92
2022-12-31T05:36:59.548Z,29.60
2022-12-31T05:39:26.485Z,134.73
2022-12-31T05:41:53.491Z,149.45
2022-12-31T05:44:20.381Z,109.97
2022-12-31T05:46:47.530Z,142.63
2022-12-31T05:49:16.277Z,125.38
2022-12-31T05:51:43.379Z,147.15
2022-12-31T05:54:10.235Z,101.97
2022-12-31T05:56:37.240Z,14.48
2022-12-31T05:59:04.236Z,66.80
2022-12-31T06:01:31.330Z,86.75
2022-12-31T06:03:58.558Z,171.27
2022-12-31T06:06:25.500Z,27.80
2022-12-31T06:08:58.734Z,102.75
2022-12-31T06:11:25.862Z,60.65
2022-12-31T06:13:52.794Z,107.78
2022-12-31T06:16:19.773Z,83.13
2022-12-31T06:18:50.967Z,53.78
2022-12-31T06:21:19.601Z,29.15
2022-12-31T06:23:47.463Z,32.20
2022-12-31T06:26:15.543Z,61.53
2022-12-31T06:28:42.813Z,49.55
2022-12-31T06:31:13.465Z,116.15
2022-12-31T06:33:41.228Z,55.53
2022-12-31T06:36:12.586Z,72.45
2022-12-31T06:38:41.738Z,124.63
2022-12-31T06:41:11.951Z,92.65
2022-12-31T06:43:40.761Z,83.28
2022-12-31T06:46:10.176Z,29.98
2022-12-31T06:48:37.802Z,41.83
2022-12-31T06:51:17.453Z,43.10
2022-12-31T06:53:46.774Z,50.72
2022-12-31T06:56:26.474Z,56.00
2022-12-31T06:58:57.929Z,56.97
2022-12-31T07:01:50.620Z,57.63
2022-12-31T07:04:55.889Z,37.92
2022-12-31T07:07:47.896Z,96.18
2022-12-31T07:10:17.764Z,55.03
2022-12-31T07:13:06.984Z,26.98
2022-12-31T07:15:56.346Z,31.55
2022-12-31T07:18:41.933Z,10.77
2022-12-31T07:21:14.290Z,6.13
2022-12-31T07:23:42.476Z,18.02
2022-12-31T07:26:18.736Z,13.63
2022-12-31T07:29:08.977Z,31.20
2022-12-31T07:31:54.563Z,22.33
2022-12-31T07:34:30.765Z,18.65
2022-12-31T07:37:13.297Z,28.17
2022-12-31T07:40:10.797Z,32.72
2022-12-31T07:42:58.866Z,20.73
2022-12-31T07:45:54.885Z,37.17
2022-12-31T07:48:30.848Z,71.57
2022-12-31T07:50:58.277Z,17.30
2022-12-31T07:53:26.343Z,7.70
2022-12-31T07:55:59.995Z,7.10
2022-12-31T07:58:59.282Z,13.88
2022-12-31T08:01:51.891Z,14.70
2022-12-31T08:04:28.156Z,5.78
2022-12-31T08:07:16.906Z,6.50
2022-12-31T08:10:15.672Z,5.95
2022-12-31T08:12:47.191Z,5.30
2022-12-31T08:15:16.373Z,3.58
2022-12-31T08:17:44.028Z,4.28
2022-12-31T08:20:17.868Z,4.90
2022-12-31T08:23:03.400Z,5.23
2022-12-31T08:25:42.242Z,3.83
2022-12-31T08:28:15.220Z,3.42
2022-12-31T08:30:54.197Z,4.75
2022-12-31T08:33:28.538Z,4.10
2022-12-31T08:36:17.101Z,4.13
2022-12-31T08:38:55.148Z,3.13
2022-12-31T08:41:42.461Z,7.10
2022-12-31T08:44:37.994Z,3.13
2022-12-31T08:47:17.835Z,4.80
2022-12-31T08:49:45.056Z,5.28
2022-12-31T08:52:20.339Z,3.40
2022-12-31T08:54:47.495Z,3.42
2022-12-31T08:57:29.615Z,25.98
2022-12-31T09:00:07.182Z,9.23
2022-12-31T09:02:52.877Z,7.63
2022-12-31T09:05:25.062Z,2.55
2022-12-31T09:08:30.575Z,2.22
2022-12-31T09:11:22.619Z,5.00
2022-12-31T09:14:08.147Z,3.75
2022-12-31T09:17:00.029Z,2.80
2022-12-31T09:19:28.018Z,3.75
2022-12-31T09:21:55.798Z,2.65
2022-12-31T09:24:22.965Z,2.20
2022-12-31T09:27:09.917Z,2.97
2022-12-31T09:30:01.504Z,4.43
2022-12-31T09:32:51.944Z,3.28
2022-12-31T09:35:46.754Z,8.50
2022-12-31T09:38:48.429Z,6.32
2022-12-31T09:41:43.417Z,4.68
2022-12-31T09:44:47.699Z,2.55
2022-12-31T09:47:40.553Z,9.07
2022-12-31T09:50:19.000Z,3.33
2022-12-31T09:52:52.052Z,36.70
2022-12-31T09:55:31.275Z,3.95
2022-12-31T09:58:04.231Z,4.35
2022-12-31T10:00:56.346Z,8.25
2022-12-31T10:03:30.861Z,4.40
2022-12-31T10:06:12.946Z,4.55
2022-12-31T10:08:46.350Z,5.10
2022-12-31T10:11:38.087Z,2.80
2022-12-31T10:14:06.405Z,13.15
2022-12-31T10:16:58.100Z,12.20
2022-12-31T10:19:51.872Z,4.47
2022-12-31T10:22:53.166Z,4.60
2022-12-31T10:25:42.037Z,5.70
2022-12-31T10:28:24.137Z,2.97
2022-12-31T10:31:17.030Z,4.22
2022-12-31T10:33:55.836Z,3.40
2022-12-31T10:37:06.461Z,9.15
2022-12-31T10:40:08.147Z,8.07
2022-12-31T10:42:59.405Z,21.98
2022-12-31T10:45:45.205Z,6.88
2022-12-31T10:48:24.134Z,18.33
2022-12-31T10:50:51.051Z,13.85
2022-12-31T10:53:54.215Z,20.20
2022-12-31T10:56:39.097Z,12.68
2022-12-31T10:59:17.688Z,4.38
2022-12-31T11:02:16.260Z,2.47
2022-12-31T11:05:10.870Z,14.65
2022-12-31T11:08:15.315Z,9.10
2022-12-31T11:11:24.933Z,3.95
2022-12-31T11:14:24.133Z,4.35
2022-12-31T11:17:06.592Z,3.65
2022-12-31T11:19:33.510Z,2.97
2022-12-31T11:22:36.006Z,5.05
2022-12-31T11:25:05.879Z,10.20
2022-12-31T11:27:57.527Z,3.50
2022-12-31T11:30:40.178Z,2.72
2022-12-31T11:33:29.091Z,15.63
2022-12-31T11:36:35.028Z,3.45
2022-12-31T11:39:31.420Z,2.80
2022-12-31T11:42:29.207Z,4.03
2022-12-31T11:45:04.673Z,1.83
2022-12-31T11:48:20.233Z,2.75
2022-12-31T11:51:02.451Z,4.20
2022-12-31T11:53:47.259Z,6.03
2022-12-31T11:56:39.665Z,6.13
2022-12-31T11:59:18.603Z,2.40
2022-12-31T12:01:52.347Z,2.78
2022-12-31T12:04:19.650Z,35.65
2022-12-31T12:06:48.174Z,4.85
2022-12-31T12:09:44.061Z,16.88
2022-12-31T12:12:14.344Z,5.30
2022-12-31T12:14:44.294Z,4.25
2022-12-31T12:17:31.924Z,2.70
2022-12-31T12:20:17.046Z,6.28
2022-12-31T12:22:56.963Z,2.13
2022-12-31T12:25:26.818Z,2.47
2022-12-31T12:27:54.607Z,4.32
2022-12-31T12:30:25.565Z,85.55
2022-12-31T12:32:58.237Z,2.53
2022-12-31T12:35:32.106Z,11.77
2022-12-31T12:38:16.276Z,53.42
2022-12-31T12:40:59.986Z,3.03
2022-12-31T12:43:32.833Z,1.10
2022-12-31T12:46:05.777Z,3.65
2022-12-31T12:48:43.572Z,4.18
2022-12-31T12:51:32.078Z,1.73
2022-12-31T12:53:59.152Z,2.78
2022-12-31T12:56:38.278Z,1.50
2022-12-31T12:59:11.231Z,2.30
2022-12-31T13:01:44.274Z,1.40
2022-12-31T13:04:33.936Z,2.15
2022-12-31T13:07:28.196Z,1.98
2022-12-31T13:10:14.050Z,3.15
2022-12-31T13:16:08.983Z,1.25
2022-12-31T13:19:19.538Z,2.70
2022-12-31T13:22:06.458Z,2.40
2022-12-31T13:25:16.348Z,2.33
2022-12-31T13:27:47.619Z,45.03
2022-12-31T13:30:28.649Z,10.50
2022-12-31T13:33:05.834Z,3.10
2022-12-31T13:35:58.875Z,2.90
2022-12-31T13:38:29.900Z,4.78
2022-12-31T13:41:32.025Z,6.70
2022-12-31T13:44:27.997Z,28.13
2022-12-31T13:47:05.971Z,9.00
2022-12-31T13:49:41.908Z,3.25
2022-12-31T13:52:27.486Z,4.30
2022-12-31T13:55:04.617Z,3.78
2022-12-31T13:57:34.596Z,3.53
2022-12-31T14:00:06.500Z,10.73
2022-12-31T14:02:50.230Z,4.75
2022-12-31T14:05:30.623Z,17.58
2022-12-31T14:08:00.764Z,37.10
2022-12-31T14:11:01.594Z,20.02
2022-12-31T14:13:51.917Z,7.15
2022-12-31T14:16:28.562Z,3.55
2022-12-31T14:19:01.189Z,10.90
2022-12-31T14:21:57.646Z,17.00
2022-12-31T14:24:43.009Z,19.73
2022-12-31T14:27:35.687Z,22.83
2022-12-31T14:30:06.523Z,10.48
2022-12-31T14:35:39.941Z,13.38
2022-12-31T14:38:31.360Z,17.27
2022-12-31T14:41:34.391Z,26.42
2022-12-31T14:44:28.661Z,43.08
2022-12-31T14:47:15.115Z,34.95
2022-12-31T14:49:59.877Z,12.20
2022-12-31T14:52:36.081Z,57.78
2022-12-31T14:55:05.965Z,21.15
2022-12-31T14:58:09.578Z,47.45
2022-12-31T15:00:41.450Z,45.70
2022-12-31T15:03:14.523Z,41.10
2022-12-31T15:06:03.817Z,15.52
2022-12-31T15:09:08.296Z,54.75
2022-12-31T15:11:56.760Z,41.05
2022-12-31T15:14:47.870Z,29.00
2022-12-31T15:17:26.691Z,36.28
2022-12-31T15:20:17.274Z,23.67
2022-12-31T15:22:52.507Z,9.75
2022-12-31T15:25:28.344Z,17.73
2022-12-31T15:27:57.963Z,14.05
2022-12-31T15:30:44.649Z,21.38
2022-12-31T15:33:31.412Z,23.00
2022-12-31T15:36:10.648Z,3.97
2022-12-31T15:38:39.374Z,23.42
2022-12-31T15:42:35.704Z,29.17
2022-12-31T15:44:43.586Z,15.98
2022-12-31T15:47:15.667Z,2.50
2022-12-31T15:49:46.920Z,10.27
2022-12-31T15:52:18.962Z,30.05
2022-12-31T15:54:54.258Z,20.20
2022-12-31T15:57:35.604Z,33.15
2022-12-31T16:00:09.605Z,13.43
2022-12-31T16:02:56.970Z,20.13
2022-12-31T16:05:26.728Z,7.63
2022-12-31T16:08:00.286Z,23.17
2022-12-31T16:10:30.508Z,46.78
2022-12-31T16:12:58.911Z,17.45
2022-12-31T16:15:29.528Z,29.65
2022-12-31T16:18:03.029Z,23.08
2022-12-31T16:20:32.319Z,18.75
2022-12-31T16:23:02.821Z,11.13
2022-12-31T16:25:33.093Z,24.27
2022-12-31T16:28:02.960Z,4.70
2022-12-31T16:30:36.096Z,5.88
2022-12-31T16:33:06.208Z,8.65
2022-12-31T16:35:39.028Z,24.08
2022-12-31T16:38:14.031Z,37.05
2022-12-31T16:41:09.015Z,20.25
2022-12-31T16:43:38.748Z,35.13
2022-12-31T16:46:29.002Z,37.50
2022-12-31T16:48:59.595Z,96.82
2022-12-31T16:51:30.649Z,75.13
2022-12-31T16:53:59.364Z,61.22
2022-12-31T16:56:37.658Z,93.60
2022-12-31T16:59:18.406Z,72.07
2022-12-31T17:01:46.384Z,19.23
2022-12-31T17:04:18.899Z,35.65
2022-12-31T17:06:47.359Z,23.30
2022-12-31T17:09:21.000Z,21.75
2022-12-31T17:11:55.215Z,10.73
2022-12-31T17:14:25.481Z,22.02
2022-12-31T17:17:03.840Z,9.35
2022-12-31T17:19:50.606Z,38.00
2022-12-31T17:22:36.525Z,12.07
2022-12-31T17:25:23.932Z,16.33
2022-12-31T17:28:01.752Z,45.15
2022-12-31T17:30:32.789Z,20.13
2022-12-31T17:33:13.369Z,17.75
2022-12-31T17:35:43.840Z,38.90
2022-12-31T17:38:32.451Z,38.17
2022-12-31T17:41:07.499Z,41.83
2022-12-31T17:43:36.731Z,10.50
2022-12-31T17:46:13.357Z,34.50
2022-12-31T17:48:41.214Z,20.70
2022-12-31T17:51:08.656Z,38.13
2022-12-31T17:53:35.939Z,117.00
2022-12-31T17:56:06.611Z,62.72
2022-12-31T17:58:37.774Z,90.07
2022-12-31T18:01:09.818Z,50.50
2022-12-31T18:03:37.097Z,73.25
2022-12-31T18:06:05.530Z,68.82
2022-12-31T18:08:32.813Z,113.43
2022-12-31T18:10:59.962Z,54.55
2022-12-31T18:13:32.022Z,219.98
2022-12-31T18:15:59.035Z,82.78
2022-12-31T18:18:35.979Z,56.20
2022-12-31T18:21:27.725Z,102.47
2022-12-31T18:26:24.027Z,77.50
2022-12-31T18:28:51.822Z,65.88
2022-12-31T18:31:28.039Z,36.80
2022-12-31T18:33:57.514Z,47.78
2022-12-31T18:36:33.272Z,18.73
2022-12-31T18:39:02.528Z,50.60
2022-12-31T18:41:36.391Z,54.47
2022-12-31T18:44:03.431Z,48.60
2022-12-31T18:46:30.538Z,32.85
2022-12-31T18:48:57.498Z,19.65
2022-12-31T18:51:31.331Z,25.98
2022-12-31T18:54:00.470Z,19.27
2022-12-31T18:56:27.988Z,18.83
2022-12-31T18:58:55.523Z,16.88
2022-12-31T19:01:37.862Z,45.92
2022-12-31T19:04:27.664Z,36.28
2022-12-31T19:06:56.175Z,21.20
2022-12-31T19:12:13.167Z,16.50
2022-12-31T19:14:40.230Z,7.85
2022-12-31T19:19:32.870Z,18.73
2022-12-31T19:21:59.850Z,27.70
2022-12-31T19:24:27.739Z,36.08
2022-12-31T19:26:55.052Z,32.15
2022-12-31T19:29:27.507Z,9.57
2022-12-31T19:31:54.896Z,18.45
2022-12-31T19:34:22.048Z,5.72
2022-12-31T19:36:49.031Z,10.50
2022-12-31T19:39:19.385Z,41.25
2022-12-31T19:41:51.461Z,25.80
2022-12-31T19:44:23.433Z,51.10
2022-12-31T19:46:50.477Z,110.78
2022-12-31T19:49:17.430Z,165.70
2022-12-31T19:51:44.422Z,168.65
2022-12-31T19:54:13.448Z,110.22
2022-12-31T19:56:40.730Z,141.57
2022-12-31T19:59:09.830Z,61.72
2022-12-31T20:01:37.203Z,91.32
2022-12-31T20:04:04.542Z,115.70
2022-12-31T20:06:31.587Z,49.10
2022-12-31T20:08:58.651Z,68.10
2022-12-31T20:11:25.803Z,20.33
2022-12-31T20:13:54.188Z,48.45
2022-12-31T20:16:24.687Z,128.45
2022-12-31T20:18:53.602Z,69.65
2022-12-31T20:21:27.097Z,35.70
2022-12-31T20:23:57.516Z,132.05
2022-12-31T20:26:26.161Z,66.97
2022-12-31T20:28:53.668Z,38.83
2022-12-31T20:31:23.486Z,35.08
2022-12-31T20:33:50.542Z,36.10
2022-12-31T20:36:17.957Z,52.95
2022-12-31T20:38:45.483Z,46.60
2022-12-31T20:41:21.577Z,48.92
2022-12-31T20:43:49.195Z,40.95
2022-12-31T20:46:22.945Z,26.30
2022-12-31T20:48:52.499Z,11.37
2022-12-31T20:51:20.393Z,11.90
2022-12-31T20:53:56.093Z,29.48
2022-12-31T20:56:24.963Z,100.72
2022-12-31T20:58:51.817Z,66.22
2022-12-31T21:01:19.340Z,75.18
2022-12-31T21:04:04.926Z,50.40
2022-12-31T21:06:34.105Z,77.53
2022-12-31T21:09:02.793Z,31.42
2022-12-31T21:11:48.764Z,45.40
2022-12-31T21:14:15.845Z,30.67
2022-12-31T21:16:42.829Z,11.30
2022-12-31T21:19:10.149Z,9.55
2022-12-31T21:21:37.749Z,11.57
2022-12-31T21:24:05.090Z,25.58
2022-12-31T21:26:32.230Z,30.92
2022-12-31T21:28:59.423Z,15.70
2022-12-31T21:31:26.616Z,23.13
2022-12-31T21:33:53.739Z,18.77
2022-12-31T21:36:20.729Z,36.03
2022-12-31T21:38:47.686Z,11.52
2022-12-31T21:41:35.091Z,22.42
2022-12-31T21:44:02.943Z,73.00
2022-12-31T21:46:30.620Z,61.70
2022-12-31T21:48:59.427Z,25.15
2022-12-31T21:51:27.178Z,30.35
2022-12-31T21:53:54.746Z,39.95
2022-12-31T21:56:22.706Z,17.30
2022-12-31T21:59:15.351Z,21.73
2022-12-31T22:02:01.906Z,69.10
2022-12-31T22:05:01.508Z,11.50
2022-12-31T22:07:16.343Z,130.60
2022-12-31T22:09:43.355Z,74.85
2022-12-31T22:12:10.408Z,64.38
2022-12-31T22:14:37.637Z,43.55
2022-12-31T22:17:04.857Z,34.83
2022-12-31T22:19:33.649Z,51.67
2022-12-31T22:22:10.647Z,39.45
2022-12-31T22:24:37.505Z,96.45
2022-12-31T22:27:29.597Z,94.45
2022-12-31T22:29:51.403Z,158.32
2022-12-31T22:32:18.367Z,68.28
2022-12-31T22:34:45.282Z,55.25
2022-12-31T22:37:44.589Z,81.35
2022-12-31T22:39:59.756Z,101.85
2022-12-31T22:42:26.655Z,150.88
2022-12-31T22:44:53.639Z,168.25
2022-12-31T22:47:45.330Z,171.68
2022-12-31T22:50:12.320Z,95.88
2022-12-31T22:52:39.288Z,50.63
2022-12-31T22:55:07.177Z,18.00
2022-12-31T22:57:34.189Z,40.35
2022-12-31T23:00:01.280Z,73.35
2022-12-31T23:02:28.357Z,24.02
2022-12-31T23:05:16.127Z,44.88
2022-12-31T23:07:42.464Z,87.40
2022-12-31T23:10:29.232Z,104.45
2022-12-31T23:12:56.168Z,105.68
2022-12-31T23:15:41.911Z,119.85
2022-12-31T23:18:27.373Z,107.35
2022-12-31T23:21:13.287Z,58.38
2022-12-31T23:23:40.248Z,45.72
2022-12-31T23:26:07.296Z,42.33
2022-12-31T23:28:34.188Z,14.95
2022-12-31T23:31:06.356Z,61.13
2022-12-31T23:33:33.381Z,35.13
2022-12-31T23:36:07.240Z,13.82
2022-12-31T23:38:40.405Z,21.35
2022-12-31T23:41:15.150Z,51.08
2022-12-31T23:43:42.583Z,46.90
2022-12-31T23:46:09.713Z,127.10
2022-12-31T23:48:36.809Z,68.07
2022-12-31T23:51:04.065Z,48.25
2022-12-31T23:53:31.157Z,18.27
2022-12-31T23:56:14.851Z,8.60
2022-12-31T23:58:44.998Z,42.03
